Time;durP1;ratioP1;P1;durP2;ratioP2;P2;SDS_P1;SDS_P2;PMS_P1;PMS_P2;Temp;Humidity;BMP_temperature;BMP_pressure;BME280_temperature;BME280_humidity;BME280_pressure;Samples;Min_cycle;Max_cycle;Signal;HPM_P1;HPM_P2
2022/08/06 00:02:12;;;;;;;4.82;1.38;;;13.40;99.90;;;;;;6143733;23;20345;-88
2022/08/06 00:04:38;;;;;;;6.18;1.88;;;13.40;99.90;;;;;;6144061;23;20025;-87
2022/08/06 00:07:04;;;;;;;7.30;1.50;;;13.40;99.90;;;;;;6144328;23;20346;-87
2022/08/06 00:09:32;;;;;;;4.38;1.40;;;13.40;99.90;;;;;;6144599;23;20468;-88
2022/08/06 00:12:03;;;;;;;5.05;1.00;;;13.30;99.90;;;;;;6145605;23;20032;-87
2022/08/06 00:14:29;;;;;;;6.65;1.73;;;13.30;99.90;;;;;;6121052;23;20017;-87
2022/08/06 00:16:55;;;;;;;6.68;1.60;;;13.30;99.90;;;;;;6144418;23;20380;-88
2022/08/06 00:19:21;;;;;;;5.00;1.30;;;13.30;99.90;;;;;;6145759;23;20029;-87
2022/08/06 00:21:47;;;;;;;4.90;1.50;;;13.30;99.90;;;;;;6147112;22;20352;-87
2022/08/06 00:24:13;;;;;;;3.08;1.40;;;13.20;99.90;;;;;;6145163;23;20028;-88
2022/08/06 00:26:39;;;;;;;5.03;1.50;;;13.10;99.90;;;;;;6145186;23;20097;-88
2022/08/06 00:29:05;;;;;;;5.95;1.60;;;13.10;99.90;;;;;;6145112;23;20313;-88
2022/08/06 00:31:31;;;;;;;6.95;1.83;;;13.10;99.90;;;;;;6144371;23;20046;-87
2022/08/06 00:34:00;;;;;;;4.97;1.75;;;13.10;99.90;;;;;;6145503;23;20017;-87
2022/08/06 00:36:27;;;;;;;4.03;1.30;;;13.00;99.90;;;;;;6147581;23;20028;-87
2022/08/06 00:38:53;;;;;;;6.85;1.70;;;13.00;99.90;;;;;;6146985;22;20029;-88
2022/08/06 00:41:20;;;;;;;3.63;1.23;;;13.20;99.90;;;;;;6147295;22;20062;-87
2022/08/06 00:43:46;;;;;;;3.03;1.50;;;13.00;99.90;;;;;;6146300;23;20488;-87
2022/08/06 00:46:12;;;;;;;5.63;1.83;;;13.00;99.90;;;;;;6145140;23;20020;-87
2022/08/06 00:48:37;;;;;;;4.93;1.42;;;12.90;99.90;;;;;;6146842;22;20021;-87
2022/08/06 00:51:03;;;;;;;5.25;1.70;;;12.90;99.90;;;;;;6145188;23;20017;-87
2022/08/06 00:53:29;;;;;;;6.70;1.48;;;12.90;99.90;;;;;;6145188;23;20022;-87
2022/08/06 00:55:55;;;;;;;3.03;1.55;;;12.90;99.90;;;;;;6146608;22;20021;-87
2022/08/06 00:58:20;;;;;;;4.65;1.45;;;12.90;99.90;;;;;;6146822;23;20075;-87
2022/08/06 01:00:46;;;;;;;4.03;1.50;;;12.80;99.90;;;;;;6145922;22;20078;-87
2022/08/06 01:03:12;;;;;;;5.25;1.63;;;12.80;99.90;;;;;;6145247;23;20021;-88
2022/08/06 01:05:37;;;;;;;8.48;1.67;;;12.70;99.90;;;;;;6146687;22;20018;-87
2022/08/06 01:08:03;;;;;;;6.90;1.80;;;12.60;99.90;;;;;;6145360;23;20018;-87
2022/08/06 01:10:29;;;;;;;5.88;1.60;;;12.60;99.90;;;;;;6147094;23;20022;-88
2022/08/06 01:12:55;;;;;;;4.18;1.40;;;12.50;99.90;;;;;;6146539;22;20321;-88
2022/08/06 01:15:20;;;;;;;4.47;1.90;;;12.50;99.90;;;;;;6120073;23;20022;-87
2022/08/06 01:17:53;;;;;;;3.85;1.40;;;12.40;99.90;;;;;;6146965;22;20388;-87
2022/08/06 01:20:52;;;;;;;4.80;1.35;;;12.40;99.90;;;;;;6120328;23;20350;-87
2022/08/06 01:23:29;;;;;;;4.07;1.45;;;12.30;99.90;;;;;;6238175;23;20322;-88
2022/08/06 01:26:21;;;;;;;4.15;1.42;;;12.30;99.90;;;;;;6212602;23;20094;-87
2022/08/06 01:28:52;;;;;;;5.10;1.48;;;12.30;99.90;;;;;;6237641;23;20016;-88
2022/08/06 01:31:28;;;;;;;5.20;1.63;;;12.20;99.90;;;;;;6238488;23;20055;-87
2022/08/06 01:33:59;;;;;;;4.75;1.30;;;12.20;99.90;;;;;;6212494;23;20452;-87
2022/08/06 01:36:40;;;;;;;3.90;1.30;;;12.20;99.90;;;;;;6238411;23;20027;-87
2022/08/06 01:39:06;;;;;;;2.88;1.55;;;12.20;99.90;;;;;;6213320;23;20530;-87
2022/08/06 01:41:42;;;;;;;3.25;1.50;;;12.20;99.90;;;;;;6238380;23;20016;-87
2022/08/06 01:44:10;;;;;;;4.75;1.70;;;12.20;99.90;;;;;;6237629;23;20383;-87
2022/08/06 01:46:39;;;;;;;8.00;1.40;;;12.10;99.90;;;;;;6212564;23;20024;-87
2022/08/06 01:49:08;;;;;;;3.35;1.60;;;12.00;99.90;;;;;;6212972;23;20016;-88
2022/08/06 01:51:35;;;;;;;4.65;1.90;;;12.20;99.90;;;;;;6212456;23;20292;-87
2022/08/06 01:54:03;;;;;;;3.63;1.20;;;12.20;99.90;;;;;;6237751;23;20031;-87
2022/08/06 01:56:32;;;;;;;3.03;1.13;;;12.10;99.90;;;;;;6212373;23;20400;-87
2022/08/06 01:59:01;;;;;;;2.67;1.30;;;12.20;99.90;;;;;;6236332;23;20104;-87
2022/08/06 02:01:27;;;;;;;7.25;1.85;;;12.10;99.90;;;;;;6144813;23;20068;-88
2022/08/06 02:03:55;;;;;;;5.07;1.60;;;12.10;99.90;;;;;;6146414;23;20022;-87
2022/08/06 02:06:26;;;;;;;3.65;1.40;;;12.10;99.90;;;;;;6144810;23;20104;-88
2022/08/06 02:08:53;;;;;;;5.03;1.60;;;12.00;99.90;;;;;;6144912;22;20263;-87
2022/08/06 02:11:19;;;;;;;1.73;0.98;;;11.90;99.90;;;;;;6146304;23;20085;-88
2022/08/06 02:13:46;;;;;;;3.35;1.42;;;11.90;99.90;;;;;;6146388;22;20375;-87
2022/08/06 02:16:13;;;;;;;5.05;1.70;;;11.90;99.90;;;;;;6146620;23;20356;-88
2022/08/06 02:18:43;;;;;;;6.57;1.67;;;11.80;99.90;;;;;;6144609;23;20021;-87
2022/08/06 02:21:14;;;;;;;5.07;1.40;;;11.80;99.90;;;;;;6144883;22;20096;-88
2022/08/06 02:23:42;;;;;;;2.55;1.23;;;11.90;99.90;;;;;;6144624;23;20018;-87
2022/08/06 02:26:10;;;;;;;6.03;1.40;;;11.70;99.90;;;;;;6146027;23;20017;-87
2022/08/06 02:28:37;;;;;;;3.92;1.27;;;11.70;99.90;;;;;;6145828;23;20017;-87
2022/08/06 02:31:04;;;;;;;4.20;1.50;;;11.60;99.90;;;;;;6146792;22;20063;-87
2022/08/06 02:33:30;;;;;;;3.05;1.30;;;11.60;99.90;;;;;;6144032;23;20005;-88
2022/08/06 02:36:05;;;;;;;3.83;1.00;;;11.50;99.90;;;;;;6144655;23;20036;-88
2022/08/06 02:38:36;;;;;;;3.30;1.30;;;11.50;99.90;;;;;;6147386;23;20341;-88
2022/08/06 02:41:10;;;;;;;5.65;1.30;;;11.70;99.90;;;;;;6146735;23;20022;-88
2022/08/06 02:43:40;;;;;;;4.40;1.38;;;11.60;99.90;;;;;;6144573;23;20032;-87
2022/08/06 02:46:16;;;;;;;6.13;1.38;;;11.70;99.90;;;;;;6146375;22;20518;-88
2022/08/06 02:48:53;;;;;;;3.25;1.25;;;11.50;99.90;;;;;;6144543;22;20024;-87
2022/08/06 02:51:25;;;;;;;4.10;1.20;;;11.50;99.90;;;;;;6146741;23;20025;-88
2022/08/06 02:54:04;;;;;;;3.53;1.20;;;11.40;99.90;;;;;;6144645;23;20026;-87
2022/08/06 02:56:30;;;;;;;4.43;1.27;;;11.40;99.90;;;;;;6119464;23;20030;-87
2022/08/06 02:58:58;;;;;;;5.63;1.30;;;11.40;99.90;;;;;;6145878;22;20513;-87
2022/08/06 03:01:29;;;;;;;3.70;1.48;;;11.40;99.90;;;;;;6144640;22;20437;-87
2022/08/06 03:03:57;;;;;;;2.55;1.40;;;11.40;99.90;;;;;;6119810;23;20063;-87
2022/08/06 03:06:26;;;;;;;4.05;1.40;;;11.40;99.90;;;;;;6145199;23;20056;-88
2022/08/06 03:08:54;;;;;;;3.92;1.48;;;11.40;99.90;;;;;;6144822;23;20053;-88
2022/08/06 03:11:22;;;;;;;5.50;1.25;;;11.30;99.90;;;;;;6144079;23;20010;-87
2022/08/06 03:13:49;;;;;;;2.53;1.48;;;11.30;99.90;;;;;;6146072;23;20371;-87
2022/08/06 03:16:16;;;;;;;3.67;1.50;;;11.40;99.90;;;;;;6120088;23;20088;-87
2022/08/06 03:18:45;;;;;;;3.88;1.30;;;11.30;99.90;;;;;;6144033;23;20071;-88
2022/08/06 03:21:11;;;;;;;3.80;1.50;;;11.30;99.90;;;;;;6144543;23;20025;-88
2022/08/06 03:23:38;;;;;;;4.10;1.27;;;11.30;99.90;;;;;;6145388;23;20079;-87
2022/08/06 03:26:05;;;;;;;4.07;1.80;;;11.30;99.90;;;;;;6119799;23;20079;-87
2022/08/06 03:28:33;;;;;;;2.65;1.58;;;11.30;99.90;;;;;;6144533;23;20202;-87
2022/08/06 03:30:59;;;;;;;4.68;1.17;;;11.30;99.90;;;;;;6119924;23;20009;-87
2022/08/06 03:33:26;;;;;;;4.15;1.55;;;11.30;99.90;;;;;;6146479;23;20013;-88
2022/08/06 03:35:57;;;;;;;5.45;1.55;;;11.30;99.90;;;;;;6119602;23;20017;-87
2022/08/06 03:38:26;;;;;;;4.50;1.40;;;11.40;99.90;;;;;;6146082;23;20651;-87
2022/08/06 03:40:53;;;;;;;3.28;1.60;;;11.30;99.90;;;;;;6144517;23;20025;-87
2022/08/06 03:43:18;;;;;;;4.60;1.40;;;11.30;99.90;;;;;;6145508;23;20433;-87
2022/08/06 03:45:53;;;;;;;3.88;1.55;;;11.30;99.90;;;;;;6118881;23;20071;-88
2022/08/06 03:48:27;;;;;;;3.10;1.63;;;11.30;99.90;;;;;;6144421;23;20096;-88
2022/08/06 03:50:53;;;;;;;2.92;1.42;;;11.20;99.90;;;;;;6146102;23;20029;-87
2022/08/06 03:53:23;;;;;;;3.63;1.50;;;11.20;99.90;;;;;;6145525;23;20064;-87
2022/08/06 03:55:52;;;;;;;4.60;1.90;;;11.20;99.90;;;;;;6143803;23;20382;-87
2022/08/06 03:58:19;;;;;;;4.43;2.10;;;11.20;99.90;;;;;;6144269;23;20453;-87
2022/08/06 04:00:50;;;;;;;3.60;1.63;;;11.10;99.90;;;;;;6144475;23;20021;-88
2022/08/06 04:03:18;;;;;;;4.38;1.73;;;11.10;99.90;;;;;;6145909;22;20044;-87
2022/08/06 04:05:44;;;;;;;3.58;1.70;;;11.10;99.90;;;;;;6145477;22;20018;-88
2022/08/06 04:08:11;;;;;;;5.60;1.98;;;11.10;99.90;;;;;;6119204;23;20021;-88
2022/08/06 04:10:40;;;;;;;3.38;1.65;;;11.10;99.90;;;;;;6144021;23;20433;-87
2022/08/06 04:13:21;;;;;;;5.32;2.65;;;11.10;99.90;;;;;;6144364;23;20045;-87
2022/08/06 04:15:48;;;;;;;5.28;2.35;;;11.00;99.90;;;;;;6143651;22;20014;-88
2022/08/06 04:18:16;;;;;;;3.38;1.55;;;11.00;99.90;;;;;;6143827;23;20092;-87
2022/08/06 04:20:46;;;;;;;3.55;1.90;;;11.00;99.90;;;;;;6143891;23;20018;-88
2022/08/06 04:23:12;;;;;;;4.00;1.83;;;11.00;99.90;;;;;;6143817;23;20367;-87
2022/08/06 04:25:51;;;;;;;5.05;2.05;;;10.90;99.90;;;;;;6143443;22;20115;-87
2022/08/06 04:28:19;;;;;;;5.32;2.15;;;10.90;99.90;;;;;;6143833;23;20324;-87
2022/08/06 04:30:45;;;;;;;4.60;2.22;;;10.90;99.90;;;;;;6145625;23;20437;-87
2022/08/06 04:33:13;;;;;;;4.30;2.10;;;10.90;99.90;;;;;;6145598;23;20014;-88
2022/08/06 04:35:40;;;;;;;4.82;2.00;;;10.90;99.90;;;;;;6143724;23;20021;-88
2022/08/06 04:38:07;;;;;;;5.70;2.65;;;10.80;99.90;;;;;;6143330;23;20032;-87
2022/08/06 04:40:33;;;;;;;3.47;2.00;;;10.80;99.90;;;;;;6119241;23;20327;-87
2022/08/06 04:42:58;;;;;;;8.48;2.10;;;10.90;99.90;;;;;;6119377;23;20051;-88
2022/08/06 04:45:26;;;;;;;4.85;1.88;;;10.90;99.90;;;;;;6145730;23;20021;-88
2022/08/06 04:47:52;;;;;;;5.47;2.13;;;10.90;99.90;;;;;;6143642;23;20017;-87
2022/08/06 04:50:18;;;;;;;3.17;1.98;;;10.90;99.90;;;;;;6143724;23;20018;-88
2022/08/06 04:52:44;;;;;;;3.65;1.70;;;11.00;99.90;;;;;;6142939;23;20023;-87
2022/08/06 04:55:09;;;;;;;4.40;2.38;;;11.00;99.90;;;;;;6144806;23;20021;-88
2022/08/06 04:57:35;;;;;;;2.95;1.92;;;11.10;99.90;;;;;;6145508;23;20424;-87
2022/08/06 05:00:01;;;;;;;4.78;1.90;;;11.20;99.90;;;;;;6147202;22;20056;-88
2022/08/06 05:02:26;;;;;;;5.20;2.17;;;11.20;99.90;;;;;;6147160;22;20045;-88
2022/08/06 05:04:55;;;;;;;4.65;1.70;;;11.30;99.90;;;;;;6144878;23;20345;-88
2022/08/06 05:07:29;;;;;;;3.47;2.00;;;11.40;99.90;;;;;;6146109;23;20021;-87
2022/08/06 05:09:58;;;;;;;5.03;1.92;;;11.50;99.90;;;;;;6144831;23;20036;-87
2022/08/06 05:12:37;;;;;;;4.55;1.90;;;11.60;99.90;;;;;;6120927;23;20017;-86
2022/08/06 05:15:24;;;;;;;4.80;1.98;;;11.70;99.90;;;;;;6145726;23;20021;-88
2022/08/06 05:18:03;;;;;;;4.40;1.83;;;11.80;99.90;;;;;;6145154;23;20029;-87
2022/08/06 05:20:35;;;;;;;5.00;1.90;;;11.80;99.90;;;;;;6146337;23;20345;-87
2022/08/06 05:23:06;;;;;;;6.13;2.00;;;11.80;99.90;;;;;;6145637;23;20319;-88
2022/08/06 05:25:35;;;;;;;3.80;1.88;;;11.80;99.90;;;;;;6147192;23;20024;-88
2022/08/06 05:28:01;;;;;;;3.50;1.77;;;11.90;99.90;;;;;;6147843;22;20010;-88
2022/08/06 05:30:26;;;;;;;4.40;1.80;;;11.90;99.90;;;;;;6148071;22;20013;-88
2022/08/06 05:32:52;;;;;;;4.65;1.80;;;12.00;99.90;;;;;;6150901;22;20096;-87
2022/08/06 05:35:18;;;;;;;4.82;1.70;;;12.00;99.90;;;;;;6147176;22;20021;-88
2022/08/06 05:37:44;;;;;;;4.35;1.67;;;11.90;99.90;;;;;;6145786;22;20341;-86
2022/08/06 05:40:09;;;;;;;2.75;1.60;;;11.90;99.90;;;;;;6146904;23;20030;-88
2022/08/06 05:42:35;;;;;;;5.35;1.70;;;11.90;99.90;;;;;;6146376;23;20405;-88
2022/08/06 05:45:01;;;;;;;5.30;1.80;;;11.90;99.90;;;;;;6146709;22;20105;-88
2022/08/06 05:47:32;;;;;;;3.00;1.80;;;11.90;99.90;;;;;;6147196;22;20018;-88
2022/08/06 05:50:05;;;;;;;4.20;2.00;;;11.90;99.90;;;;;;6146873;23;20018;-88
2022/08/06 05:52:46;;;;;;;5.90;2.08;;;11.90;99.90;;;;;;6145169;23;20018;-88
2022/08/06 05:55:16;;;;;;;6.13;2.00;;;11.90;99.90;;;;;;6145365;23;20514;-88
2022/08/06 05:57:54;;;;;;;5.45;2.08;;;11.90;99.90;;;;;;6145564;23;20010;-88
2022/08/06 06:00:23;;;;;;;3.78;1.75;;;11.90;99.90;;;;;;6144948;22;20345;-88
2022/08/06 06:02:51;;;;;;;3.83;1.80;;;11.90;99.90;;;;;;6144873;23;20009;-88
2022/08/06 06:05:18;;;;;;;5.25;2.08;;;11.90;99.90;;;;;;6143698;23;20030;-88
2022/08/06 06:07:44;;;;;;;3.30;1.65;;;12.00;99.90;;;;;;6144588;23;20346;-87
2022/08/06 06:10:12;;;;;;;4.70;2.00;;;12.00;99.90;;;;;;6120467;23;20021;-88
2022/08/06 06:12:39;;;;;;;3.92;1.80;;;12.00;99.90;;;;;;6146090;23;20025;-88
2022/08/06 06:15:05;;;;;;;2.83;1.60;;;12.10;99.90;;;;;;6146544;23;20401;-88
2022/08/06 06:17:50;;;;;;;3.72;1.60;;;12.20;99.90;;;;;;6146429;23;20114;-88
2022/08/06 06:20:39;;;;;;;4.07;2.00;;;12.20;99.90;;;;;;6146856;23;20021;-87
2022/08/06 06:23:17;;;;;;;3.22;1.67;;;12.40;99.90;;;;;;6146892;23;20043;-88
2022/08/06 06:25:47;;;;;;;3.03;1.50;;;12.30;99.90;;;;;;6146802;22;20028;-88
2022/08/06 06:28:26;;;;;;;4.05;1.88;;;12.40;99.90;;;;;;6120132;23;20070;-88
2022/08/06 06:31:01;;;;;;;3.97;1.50;;;12.50;99.90;;;;;;6146815;22;20099;-88
2022/08/06 06:33:39;;;;;;;3.03;1.55;;;12.60;99.90;;;;;;6144378;22;20501;-88
2022/08/06 06:36:43;;;;;;;4.70;1.20;;;12.70;99.90;;;;;;6146831;22;20095;-88
2022/08/06 06:39:21;;;;;;;3.97;1.50;;;12.80;99.90;;;;;;6146100;23;20517;-87
2022/08/06 06:42:07;;;;;;;3.70;1.30;;;12.90;99.90;;;;;;6146292;23;20033;-88
2022/08/06 06:44:51;;;;;;;2.53;1.23;;;13.00;99.90;;;;;;6119590;23;20014;-88
2022/08/06 06:47:38;;;;;;;3.05;1.25;;;13.10;99.90;;;;;;6146315;23;20329;-88
2022/08/06 06:50:13;;;;;;;2.13;0.88;;;13.10;99.90;;;;;;6146357;23;20018;-88
2022/08/06 06:52:41;;;;;;;2.35;1.00;;;13.20;99.90;;;;;;6144287;23;20046;-88
2022/08/06 06:55:15;;;;;;;2.22;0.90;;;13.20;99.90;;;;;;6119540;23;20467;-87
2022/08/06 06:57:47;;;;;;;2.60;1.00;;;13.20;99.90;;;;;;6146136;23;20017;-88
2022/08/06 07:00:13;;;;;;;3.65;0.90;;;13.50;99.90;;;;;;6119937;23;20471;-88
2022/08/06 07:02:41;;;;;;;2.75;0.80;;;13.40;99.90;;;;;;6143775;23;20056;-88
2022/08/06 07:05:09;;;;;;;4.35;0.82;;;13.40;99.90;;;;;;6144478;23;20404;-88
2022/08/06 07:07:39;;;;;;;2.22;0.60;;;13.60;99.90;;;;;;6144729;23;20017;-88
2022/08/06 07:10:07;;;;;;;2.70;0.82;;;13.60;99.90;;;;;;6144376;23;20066;-88
2022/08/06 07:12:34;;;;;;;3.75;0.95;;;13.80;99.90;;;;;;6119504;23;20025;-88
2022/08/06 07:15:03;;;;;;;5.72;1.27;;;13.90;99.90;;;;;;6119867;23;20024;-88
2022/08/06 07:17:31;;;;;;;2.80;0.80;;;14.20;99.90;;;;;;6144098;23;20375;-88
2022/08/06 07:19:59;;;;;;;2.47;0.47;;;14.30;99.90;;;;;;6145944;22;20024;-88
2022/08/06 07:22:25;;;;;;;2.00;0.80;;;14.50;99.90;;;;;;6146015;23;20028;-88
2022/08/06 07:24:53;;;;;;;4.28;0.80;;;14.60;99.90;;;;;;6146162;23;20380;-88
2022/08/06 07:27:20;;;;;;;3.50;0.60;;;14.70;99.90;;;;;;6144945;23;20333;-88
2022/08/06 07:29:46;;;;;;;4.50;0.77;;;14.80;99.90;;;;;;6144194;22;20029;-88
2022/08/06 07:32:12;;;;;;;4.75;0.80;;;15.10;99.90;;;;;;6119197;23;20092;-88
2022/08/06 07:34:40;;;;;;;4.97;0.70;;;15.30;99.90;;;;;;6144064;23;20346;-89
2022/08/06 07:37:06;;;;;;;4.38;0.80;;;15.50;99.90;;;;;;6144368;22;20025;-88
2022/08/06 07:39:38;;;;;;;3.92;0.88;;;15.70;99.90;;;;;;6144523;23;20024;-89
2022/08/06 07:42:09;;;;;;;1.75;0.63;;;15.90;99.90;;;;;;6144191;23;20040;-88
2022/08/06 07:44:36;;;;;;;3.25;0.68;;;15.90;99.90;;;;;;6143574;23;20025;-88
2022/08/06 07:47:04;;;;;;;3.38;0.70;;;16.00;99.90;;;;;;6144698;22;20307;-88
2022/08/06 07:49:38;;;;;;;5.18;0.95;;;16.00;99.90;;;;;;6144336;23;20315;-89
2022/08/06 07:52:05;;;;;;;3.38;0.82;;;16.00;99.90;;;;;;6146053;23;20411;-88
2022/08/06 07:54:32;;;;;;;3.00;0.60;;;16.20;99.90;;;;;;6145693;23;20025;-89
2022/08/06 07:56:57;;;;;;;2.25;0.50;;;16.30;99.90;;;;;;6144431;23;20024;-89
2022/08/06 07:59:25;;;;;;;3.38;0.80;;;16.30;99.90;;;;;;6143397;22;20025;-88
2022/08/06 08:01:51;;;;;;;3.30;1.13;;;16.30;99.90;;;;;;6143898;23;20021;-89
2022/08/06 08:07:04;;;;;;;1.88;0.50;;;16.50;99.90;;;;;;6144076;23;20503;-89
2022/08/06 08:09:31;;;;;;;4.10;0.50;;;16.80;99.90;;;;;;6144147;23;20017;-89
2022/08/06 08:11:57;;;;;;;3.30;0.45;;;17.20;99.90;;;;;;6145629;22;20018;-89
2022/08/06 08:14:24;;;;;;;3.25;0.52;;;17.50;99.90;;;;;;6143488;23;20095;-88
2022/08/06 08:16:50;;;;;;;4.07;0.40;;;17.80;99.90;;;;;;6143749;23;20033;-88
2022/08/06 08:19:32;;;;;;;4.28;0.60;;;18.00;99.90;;;;;;6119621;23;20083;-89
2022/08/06 08:22:17;;;;;;;3.30;0.50;;;18.10;99.90;;;;;;6119280;23;20013;-88
2022/08/06 08:24:47;;;;;;;4.03;0.40;;;18.20;99.90;;;;;;6145607;23;20387;-88
2022/08/06 08:27:14;;;;;;;2.63;0.60;;;18.20;99.90;;;;;;6146053;23;20279;-88
2022/08/06 08:29:41;;;;;;;3.53;0.60;;;18.10;99.90;;;;;;6143463;23;20017;-89
2022/08/06 08:32:08;;;;;;;2.92;0.70;;;18.30;99.90;;;;;;6145661;23;20026;-88
2022/08/06 08:34:37;;;;;;;1.35;0.40;;;18.50;99.90;;;;;;6146756;23;20075;-88
2022/08/06 08:37:03;;;;;;;5.28;0.60;;;18.80;99.90;;;;;;6147151;23;20014;-89
2022/08/06 08:39:30;;;;;;;2.08;0.43;;;19.00;99.90;;;;;;6145118;23;20095;-89
2022/08/06 08:42:06;;;;;;;7.78;0.68;;;19.00;99.90;;;;;;6146756;23;20380;-89
2022/08/06 08:44:33;;;;;;;1.60;0.40;;;18.90;99.90;;;;;;6146934;23;20013;-89
2022/08/06 08:47:00;;;;;;;4.03;0.63;;;18.90;99.90;;;;;;6145283;23;20025;-89
2022/08/06 08:49:38;;;;;;;2.17;0.50;;;18.70;99.90;;;;;;6145187;23;20020;-89
2022/08/06 08:52:08;;;;;;;2.88;0.63;;;18.60;99.90;;;;;;6147288;23;20017;-89
2022/08/06 08:54:36;;;;;;;1.98;0.65;;;18.50;99.90;;;;;;6144352;22;20446;-88
2022/08/06 08:57:05;;;;;;;2.97;1.02;;;18.40;99.90;;;;;;6147080;23;20022;-88
2022/08/06 08:59:32;;;;;;;2.17;0.80;;;18.20;99.90;;;;;;6145227;23;20025;-89
2022/08/06 09:01:58;;;;;;;5.32;1.25;;;18.10;99.90;;;;;;6120211;23;20010;-89
2022/08/06 09:04:25;;;;;;;2.55;1.20;;;18.20;99.90;;;;;;6145005;23;20248;-88
2022/08/06 09:06:51;;;;;;;2.65;1.20;;;18.30;99.90;;;;;;6145424;23;20022;-89
2022/08/06 09:09:17;;;;;;;4.35;1.20;;;18.50;99.90;;;;;;6145148;22;20028;-91
2022/08/06 09:11:44;;;;;;;5.53;0.98;;;18.90;99.90;;;;;;6146357;23;20025;-90
2022/08/06 09:14:10;;;;;;;4.07;1.10;;;19.20;99.90;;;;;;6147244;22;20022;-89
2022/08/06 09:16:36;;;;;;;3.53;1.00;;;19.50;99.90;;;;;;6145347;23;20045;-89
2022/08/06 09:19:04;;;;;;;2.25;0.90;;;19.50;99.90;;;;;;6144767;22;20372;-89
2022/08/06 09:21:32;;;;;;;5.35;1.00;;;19.60;99.90;;;;;;6120841;23;20021;-89
2022/08/06 09:23:58;;;;;;;2.85;0.80;;;19.50;99.90;;;;;;6146632;22;20077;-89
2022/08/06 09:26:23;;;;;;;3.33;0.85;;;19.60;99.90;;;;;;6144491;23;20386;-89
2022/08/06 09:28:49;;;;;;;2.50;0.60;;;19.40;99.90;;;;;;6120433;23;20013;-89
2022/08/06 09:31:17;;;;;;;2.95;0.60;;;19.20;99.90;;;;;;6147127;22;20384;-89
2022/08/06 09:34:04;;;;;;;3.75;0.77;;;19.00;99.90;;;;;;6119935;23;20017;-89
2022/08/06 09:36:42;;;;;;;2.28;0.65;;;18.90;99.90;;;;;;6146875;23;20013;-88
2022/08/06 09:39:08;;;;;;;4.45;0.75;;;18.70;99.90;;;;;;6146437;23;20025;-91
2022/08/06 09:41:34;;;;;;;3.15;1.05;;;18.60;99.90;;;;;;6146300;23;20009;-89
2022/08/06 09:44:09;;;;;;;4.55;0.80;;;18.50;99.90;;;;;;6144601;23;20052;-89
2022/08/06 09:46:47;;;;;;;4.88;0.90;;;18.30;99.90;;;;;;6144445;23;20047;-89
2022/08/06 09:49:14;;;;;;;4.75;0.68;;;18.30;99.90;;;;;;6120417;23;20017;-88
2022/08/06 09:51:40;;;;;;;5.20;0.93;;;18.10;99.90;;;;;;6146527;23;20049;-89
2022/08/06 09:54:18;;;;;;;4.53;0.70;;;18.00;99.90;;;;;;6144587;23;20022;-89
2022/08/06 09:56:44;;;;;;;3.88;0.90;;;18.10;99.90;;;;;;6143910;23;20024;-89
2022/08/06 09:59:12;;;;;;;5.80;1.13;;;18.00;99.90;;;;;;6144922;23;20009;-89
2022/08/06 10:01:48;;;;;;;4.75;1.10;;;18.10;99.90;;;;;;6146449;23;20451;-89
2022/08/06 10:04:27;;;;;;;4.10;0.80;;;18.10;99.90;;;;;;6120363;23;20017;-89
2022/08/06 10:06:59;;;;;;;3.42;0.90;;;18.20;99.90;;;;;;6120166;23;20287;-89
2022/08/06 10:09:26;;;;;;;3.83;1.00;;;18.20;99.90;;;;;;6144811;22;20049;-90
2022/08/06 10:11:52;;;;;;;3.58;0.90;;;18.10;99.90;;;;;;6144251;23;20318;-90
2022/08/06 10:14:25;;;;;;;4.60;0.98;;;18.20;99.90;;;;;;6146702;23;20028;-89
2022/08/06 10:17:10;;;;;;;4.07;1.10;;;18.20;99.90;;;;;;6146636;23;20014;-89
2022/08/06 10:19:37;;;;;;;2.85;0.70;;;18.30;99.90;;;;;;6144845;23;20017;-89
2022/08/06 10:22:24;;;;;;;3.13;0.90;;;18.50;99.90;;;;;;6120721;23;20033;-89
2022/08/06 10:24:53;;;;;;;3.83;0.80;;;18.70;99.90;;;;;;6145597;23;20020;-89
2022/08/06 10:27:22;;;;;;;4.22;1.00;;;19.10;99.90;;;;;;6120429;23;20059;-89
2022/08/06 10:29:53;;;;;;;3.17;0.95;;;19.40;99.90;;;;;;6119471;23;20155;-89
2022/08/06 10:32:29;;;;;;;3.05;0.98;;;19.70;99.90;;;;;;6144954;23;20019;-89
2022/08/06 10:34:57;;;;;;;4.00;1.27;;;19.80;99.90;;;;;;6145838;23;20544;-89
2022/08/06 10:37:23;;;;;;;1.85;0.90;;;20.00;99.90;;;;;;6145083;22;20018;-90
2022/08/06 10:39:55;;;;;;;4.65;1.08;;;20.10;99.90;;;;;;6146157;23;20017;-90
2022/08/06 10:42:22;;;;;;;3.17;1.10;;;20.20;99.90;;;;;;6146940;23;20064;-89
2022/08/06 10:44:50;;;;;;;4.55;1.00;;;20.30;99.90;;;;;;6145862;23;20375;-89
2022/08/06 10:47:16;;;;;;;4.60;1.10;;;20.30;99.90;;;;;;6145015;22;20024;-89
2022/08/06 10:49:43;;;;;;;5.05;1.08;;;20.30;99.90;;;;;;6144280;23;20025;-89
2022/08/06 10:52:11;;;;;;;3.88;1.00;;;20.30;99.90;;;;;;6146926;23;20017;-90
2022/08/06 10:54:37;;;;;;;2.80;1.00;;;20.40;99.90;;;;;;6142576;23;20214;-89
2022/08/06 10:57:03;;;;;;;3.47;1.08;;;20.40;99.90;;;;;;6145518;23;20017;-89
2022/08/06 10:59:28;;;;;;;4.05;1.10;;;20.40;99.90;;;;;;6146763;22;20528;-89
2022/08/06 11:02:12;;;;;;;3.63;1.20;;;20.40;99.60;;;;;;6144090;23;20319;-89
2022/08/06 11:04:43;;;;;;;3.70;1.17;;;20.40;99.90;;;;;;6144013;23;20017;-88
2022/08/06 11:07:38;;;;;;;4.07;1.10;;;20.40;99.70;;;;;;6145036;23;20257;-89
2022/08/06 11:10:29;;;;;;;4.85;1.17;;;20.50;99.80;;;;;;6127703;23;20021;-90
2022/08/06 11:13:13;;;;;;;4.15;1.10;;;20.60;99.90;;;;;;6144381;22;20354;-89
2022/08/06 11:15:41;;;;;;;3.70;1.52;;;20.80;99.90;;;;;;6144378;23;20017;-89
2022/08/06 11:18:09;;;;;;;4.68;1.38;;;20.80;99.30;;;;;;6119812;23;20014;-89
2022/08/06 11:20:40;;;;;;;3.00;1.23;;;20.90;98.90;;;;;;6144240;22;20070;-89
2022/08/06 11:23:12;;;;;;;2.85;1.10;;;21.00;98.30;;;;;;6143732;22;20093;-89
2022/08/06 11:25:51;;;;;;;4.03;1.00;;;21.00;98.10;;;;;;6145875;22;20307;-89
2022/08/06 11:28:19;;;;;;;3.85;1.20;;;21.10;97.40;;;;;;6146231;23;20026;-89
2022/08/06 11:30:51;;;;;;;4.35;1.50;;;21.20;97.60;;;;;;6144287;23;20025;-89
2022/08/06 11:33:21;;;;;;;3.80;1.27;;;21.30;97.60;;;;;;6144489;23;20021;-89
2022/08/06 11:35:50;;;;;;;2.35;1.10;;;21.40;96.50;;;;;;6143712;23;20033;-89
2022/08/06 11:38:42;;;;;;;3.50;1.02;;;21.40;96.30;;;;;;6143934;23;20022;-90
2022/08/06 11:41:09;;;;;;;3.42;1.25;;;21.50;96.10;;;;;;6120016;23;20350;-91
2022/08/06 11:44:03;;;;;;;4.18;1.50;;;21.60;95.70;;;;;;6119791;23;20379;-89
2022/08/06 11:46:40;;;;;;;3.17;1.60;;;21.70;93.80;;;;;;6145269;23;20102;-89
2022/08/06 11:49:14;;;;;;;4.35;1.38;;;21.90;94.50;;;;;;6146383;23;20063;-89
2022/08/06 11:51:58;;;;;;;;;;;22.00;94.40;;;;;;6119584;23;20026;-91
2022/08/06 11:54:35;;;;;;;3.20;1.67;;;22.20;94.30;;;;;;6119272;23;19920;-90
2022/08/06 11:57:01;;;;;;;3.58;1.58;;;22.30;93.80;;;;;;6145980;23;20465;-89
2022/08/06 11:59:31;;;;;;;4.80;1.55;;;22.40;94.10;;;;;;6145925;22;20021;-91
2022/08/06 12:01:58;;;;;;;3.10;1.65;;;22.40;92.80;;;;;;6145996;23;20017;-89
2022/08/06 12:04:39;;;;;;;4.60;1.73;;;22.20;93.00;;;;;;6144049;23;20434;-89
2022/08/06 12:07:24;;;;;;;8.30;2.05;;;22.00;92.30;;;;;;6146499;23;20017;-89
2022/08/06 12:10:05;;;;;;;3.10;1.60;;;22.00;92.00;;;;;;6145369;23;20013;-90
2022/08/06 12:12:34;;;;;;;4.88;1.95;;;21.90;92.60;;;;;;6145749;23;20465;-90
2022/08/06 12:15:23;;;;;;;4.53;1.70;;;21.90;92.20;;;;;;6147818;23;20075;-89
2022/08/06 12:17:57;;;;;;;3.55;1.80;;;21.90;92.70;;;;;;6146833;23;20018;-89
2022/08/06 12:20:52;;;;;;;3.33;2.00;;;21.80;92.20;;;;;;6146421;23;20025;-90
2022/08/06 12:23:22;;;;;;;4.45;2.65;;;21.80;90.90;;;;;;6134269;23;20257;-89
2022/08/06 12:25:54;;;;;;;5.38;2.05;;;21.80;91.60;;;;;;6120609;23;20358;-89
2022/08/06 12:28:20;;;;;;;4.28;1.70;;;21.90;91.80;;;;;;6145575;23;20029;-90
2022/08/06 12:30:50;;;;;;;4.30;1.88;;;21.90;90.60;;;;;;6144543;23;20272;-89
2022/08/06 12:33:17;;;;;;;4.53;2.05;;;21.90;91.00;;;;;;6121076;23;20612;-90
2022/08/06 12:35:53;;;;;;;4.32;1.83;;;22.00;90.80;;;;;;6146097;23;20023;-89
2022/08/06 12:38:21;;;;;;;4.50;2.13;;;22.20;90.50;;;;;;6145196;23;20446;-90
2022/08/06 12:40:57;;;;;;;3.65;2.00;;;22.40;90.80;;;;;;6146553;23;20075;-89
2022/08/06 12:43:24;;;;;;;4.22;1.73;;;22.70;88.90;;;;;;6145845;23;20018;-90
2022/08/06 12:45:57;;;;;;;4.72;2.33;;;22.80;90.40;;;;;;6144834;23;20049;-91
2022/08/06 12:48:24;;;;;;;6.47;2.47;;;23.00;90.20;;;;;;6147908;23;20021;-90
2022/08/06 12:51:00;;;;;;;3.85;2.38;;;22.90;90.40;;;;;;6144327;23;20100;-89
2022/08/06 12:53:25;;;;;;;5.28;2.40;;;22.70;90.30;;;;;;6147496;23;20018;-90
2022/08/06 12:55:53;;;;;;;4.35;2.42;;;22.70;90.50;;;;;;6146207;22;20338;-91
2022/08/06 12:58:23;;;;;;;5.38;2.47;;;22.80;90.00;;;;;;6147470;23;20022;-89
2022/08/06 13:00:53;;;;;;;4.85;2.60;;;22.70;89.90;;;;;;6146496;23;20021;-89
2022/08/06 13:03:22;;;;;;;4.90;2.40;;;22.70;90.30;;;;;;6147328;22;20025;-89
2022/08/06 13:05:48;;;;;;;6.63;2.10;;;22.60;90.40;;;;;;6144136;22;20345;-89
2022/08/06 13:08:14;;;;;;;6.55;2.55;;;22.70;89.10;;;;;;6120463;23;20574;-90